createdAt,value
2023-04-17T00:00:32.727Z,95680.28
2023-04-17T00:03:34.795Z,95675.69
2023-04-17T00:06:38.406Z,95674.03
2023-04-17T00:09:40.830Z,95667.78
2023-04-17T00:12:43.038Z,95669.34
2023-04-17T00:15:45.235Z,95666.75
2023-04-17T00:18:47.734Z,95661.84
2023-04-17T00:21:50.824Z,95658.13
2023-04-17T00:24:52.705Z,95660.16
2023-04-17T00:27:54.590Z,95656.34
2023-04-17T00:30:59.570Z,95657.81
2023-04-17T00:34:01.738Z,95656.34
2023-04-17T00:37:05.030Z,95653.31
2023-04-17T00:40:08.053Z,95655.91
2023-04-17T00:43:09.799Z,95663.94
2023-04-17T00:46:13.148Z,95664.03
2023-04-17T00:49:15.392Z,95660.22
2023-04-17T00:52:30.220Z,95651.44
2023-04-17T00:55:34.187Z,95654.44
2023-04-17T00:58:38.238Z,95657.19
2023-04-17T01:01:40.255Z,95652.63
2023-04-17T01:04:42.347Z,95655.31
2023-04-17T01:07:48.226Z,95663.09
2023-04-17T01:10:50.467Z,95655.41
2023-04-17T01:13:53.750Z,95655.47
2023-04-17T01:16:55.904Z,95658.22
2023-04-17T01:19:59.232Z,95655.31
2023-04-17T01:23:03.296Z,95657.66
2023-04-17T01:26:09.195Z,95656.16
2023-04-17T01:29:11.194Z,95653.50
2023-04-17T01:32:14.817Z,95651.59
2023-04-17T01:35:16.740Z,95656.97
2023-04-17T01:38:20.624Z,95654.38
2023-04-17T01:41:23.905Z,95656.25
2023-04-17T01:44:27.820Z,95654.72
2023-04-17T01:47:30.215Z,95647.00
2023-04-17T01:50:32.073Z,95651.59
2023-04-17T01:53:40.720Z,95648.94
2023-04-17T01:56:44.072Z,95651.16
2023-04-17T01:59:45.857Z,95655.06
2023-04-17T02:02:48.533Z,95651.59
2023-04-17T02:05:51.727Z,95649.47
2023-04-17T02:08:53.563Z,95651.78
2023-04-17T02:11:56.823Z,95659.38
2023-04-17T02:14:59.785Z,95662.16
2023-04-17T02:18:02.366Z,95662.50
2023-04-17T02:21:04.479Z,95654.91
2023-04-17T02:24:07.009Z,95659.91
2023-04-17T02:27:10.353Z,95655.75
2023-04-17T02:30:12.889Z,95654.66
2023-04-17T02:33:14.667Z,95658.44
2023-04-17T02:36:19.034Z,95650.41
2023-04-17T02:39:20.733Z,95657.75
2023-04-17T02:42:24.679Z,95646.59
2023-04-17T02:45:27.627Z,95648.50
2023-04-17T02:48:32.328Z,95648.50
2023-04-17T02:51:35.005Z,95643.16
2023-04-17T02:54:37.705Z,95632.09
2023-04-17T02:57:40.864Z,95635.88
2023-04-17T03:00:44.747Z,95634.31
2023-04-17T03:03:46.678Z,95636.25
2023-04-17T03:06:48.657Z,95641.75
2023-04-17T03:09:50.672Z,95638.84
2023-04-17T03:12:56.308Z,95641.16
2023-04-17T03:15:59.188Z,95638.16
2023-04-17T03:19:00.981Z,95644.72
2023-04-17T03:22:03.712Z,95646.97
2023-04-17T03:25:07.206Z,95645.47
2023-04-17T03:28:10.306Z,95646.69
2023-04-17T03:31:12.369Z,95644.38
2023-04-17T03:34:14.225Z,95646.38
2023-04-17T03:37:16.289Z,95646.38
2023-04-17T03:40:20.649Z,95645.16
2023-04-17T03:43:24.042Z,95647.91
2023-04-17T03:46:25.821Z,95650.53
2023-04-17T03:49:28.166Z,95647.53
2023-04-17T03:52:30.467Z,95650.75
2023-04-17T03:55:33.474Z,95651.56
2023-04-17T03:58:38.915Z,95661.13
2023-04-17T04:01:45.438Z,95655.00
2023-04-17T04:04:48.891Z,95661.47
2023-04-17T04:07:53.820Z,95661.13
2023-04-17T04:10:55.832Z,95662.69
2023-04-17T04:14:00.515Z,95661.13
2023-04-17T04:17:03.193Z,95663.03
2023-04-17T04:20:06.456Z,95662.34
2023-04-17T04:23:08.229Z,95662.69
2023-04-17T04:26:10.379Z,95666.16
2023-04-17T04:29:13.830Z,95668.03
2023-04-17T04:32:16.818Z,95669.59
2023-04-17T04:35:18.990Z,95667.63
2023-04-17T04:38:21.899Z,95663.47
2023-04-17T04:41:24.270Z,95671.50
2023-04-17T04:44:27.580Z,95681.53
2023-04-17T04:47:30.240Z,95673.75
2023-04-17T04:50:34.264Z,95682.25
2023-04-17T04:53:36.362Z,95685.00
2023-04-17T04:56:39.662Z,95692.69
2023-04-17T04:59:43.178Z,95688.88
2023-04-17T05:02:45.807Z,95687.69
2023-04-17T05:05:50.528Z,95693.13
2023-04-17T05:08:53.081Z,95696.56
2023-04-17T05:11:58.482Z,95698.50
2023-04-17T05:15:02.314Z,95695.38
2023-04-17T05:18:05.851Z,95697.81
2023-04-17T05:21:07.674Z,95705.94
2023-04-17T05:24:09.429Z,95700.31
2023-04-17T05:27:11.901Z,95706.91
2023-04-17T05:30:15.740Z,95703.97
2023-04-17T05:33:17.946Z,95709.06
2023-04-17T05:36:19.785Z,95703.81
2023-04-17T05:39:21.515Z,95707.25
2023-04-17T05:42:23.632Z,95700.50
2023-04-17T05:45:28.228Z,95700.25
2023-04-17T05:48:30.317Z,95703.72
2023-04-17T05:51:33.624Z,95704.50
2023-04-17T05:54:38.091Z,95703.53
2023-04-17T05:57:40.110Z,95704.66
2023-04-17T06:00:44.670Z,95712.72
2023-04-17T06:03:46.875Z,95712.38
2023-04-17T06:06:48.869Z,95716.16
2023-04-17T06:09:50.675Z,95723.38
2023-04-17T06:12:52.592Z,95729.47
2023-04-17T06:15:55.760Z,95721.78
2023-04-17T06:18:57.592Z,95726.13
2023-04-17T06:21:59.737Z,95730.63
2023-04-17T06:25:01.830Z,95731.38
2023-04-17T06:28:03.845Z,95735.16
2023-04-17T06:31:07.377Z,95738.22
2023-04-17T06:34:09.219Z,95743.25
2023-04-17T06:37:11.446Z,95736.84
2023-04-17T06:40:13.638Z,95741.59
2023-04-17T06:43:16.397Z,95747.47
2023-04-17T06:46:20.346Z,95746.19
2023-04-17T06:49:22.281Z,95750.63
2023-04-17T06:52:24.610Z,95750.72
2023-04-17T06:55:27.272Z,95753.19
2023-04-17T06:58:30.529Z,95762.56
2023-04-17T07:01:34.180Z,95757.88
2023-04-17T07:04:36.370Z,95758.31
2023-04-17T07:07:38.257Z,95762.19
2023-04-17T07:10:40.370Z,95760.72
2023-04-17T07:13:42.143Z,95759.19
2023-04-17T07:16:46.162Z,95763.22
2023-04-17T07:19:48.131Z,95756.41
2023-04-17T07:22:50.414Z,95760.97
2023-04-17T07:25:53.983Z,95763.06
2023-04-17T07:28:55.824Z,95770.00
2023-04-17T07:31:59.931Z,95764.44
2023-04-17T07:35:01.976Z,95768.97
2023-04-17T07:38:03.840Z,95775.63
2023-04-17T07:41:05.843Z,95771.63
2023-04-17T07:44:10.726Z,95777.19
2023-04-17T07:47:14.305Z,95777.53
2023-04-17T07:50:16.535Z,95780.13
2023-04-17T07:53:18.548Z,95775.47
2023-04-17T07:56:20.573Z,95780.97
2023-04-17T07:59:22.335Z,95786.03
2023-04-17T08:02:26.286Z,95792.31
2023-04-17T08:05:28.823Z,95790.34
2023-04-17T08:08:32.121Z,95802.09
2023-04-17T08:11:42.768Z,95791.28
2023-04-17T08:14:47.877Z,95798.38
2023-04-17T08:17:51.834Z,95800.31
2023-04-17T08:20:53.698Z,95801.34
2023-04-17T08:23:55.499Z,95804.03
2023-04-17T08:26:57.377Z,95805.72
2023-04-17T08:29:59.331Z,95804.91
2023-04-17T08:33:04.087Z,95808.31
2023-04-17T08:36:08.433Z,95803.78
2023-04-17T08:39:10.873Z,95799.22
2023-04-17T08:42:18.228Z,95807.28
2023-04-17T08:45:22.717Z,95805.00
2023-04-17T08:48:26.277Z,95801.28
2023-04-17T08:51:28.668Z,95804.91
2023-04-17T08:54:30.412Z,95809.75
2023-04-17T08:57:32.503Z,95807.59
2023-04-17T09:00:36.245Z,95809.59
2023-04-17T09:03:43.721Z,95812.44
2023-04-17T09:06:54.620Z,95806.75
2023-04-17T09:09:57.173Z,95805.88
2023-04-17T09:13:00.127Z,95806.81
2023-04-17T09:16:08.429Z,95810.44
2023-04-17T09:19:12.776Z,95810.50
2023-04-17T09:22:18.667Z,95809.16
2023-04-17T09:25:21.175Z,95812.78
2023-04-17T09:28:25.527Z,95810.31
2023-04-17T09:31:28.841Z,95811.81
2023-04-17T09:34:40.687Z,95811.34
2023-04-17T09:37:50.766Z,95813.41
2023-04-17T09:40:53.791Z,95814.00
2023-04-17T09:43:57.845Z,95813.59
2023-04-17T09:47:00.858Z,95821.34
2023-04-17T09:50:05.359Z,95818.03
2023-04-17T09:53:08.544Z,95815.84
2023-04-17T09:56:12.928Z,95812.16
2023-04-17T09:59:16.227Z,95805.84
2023-04-17T10:02:20.076Z,95814.50
2023-04-17T10:05:25.774Z,95811.09
2023-04-17T10:08:28.479Z,95799.34
2023-04-17T10:11:35.337Z,95794.47
2023-04-17T10:14:40.426Z,95793.69
2023-04-17T10:17:42.504Z,95799.06
2023-04-17T10:20:47.437Z,95798.00
2023-04-17T10:23:50.108Z,95800.19
2023-04-17T10:26:52.981Z,95795.31
2023-04-17T10:29:55.866Z,95789.13
2023-04-17T10:33:20.544Z,95794.53
2023-04-17T10:36:50.499Z,95780.53
2023-04-17T10:40:00.282Z,95785.59
2023-04-17T10:43:03.709Z,95775.59
2023-04-17T10:46:09.719Z,95770.03
2023-04-17T10:49:14.209Z,95778.38
2023-04-17T10:52:36.676Z,95781.44
2023-04-17T10:55:49.025Z,95778.22
2023-04-17T10:58:58.675Z,95777.09
2023-04-17T11:02:01.408Z,95769.50
2023-04-17T11:05:07.446Z,95771.72
2023-04-17T11:08:11.728Z,95772.56
2023-04-17T11:11:18.476Z,95768.91
2023-04-17T11:14:23.139Z,95767.75
2023-04-17T11:17:25.938Z,95769.44
2023-04-17T11:20:30.122Z,95761.41
2023-04-17T11:23:34.150Z,95764.19
2023-04-17T11:26:44.853Z,95757.81
2023-04-17T11:29:47.808Z,95757.16
2023-04-17T11:32:50.049Z,95758.03
2023-04-17T11:35:55.186Z,95762.78
2023-04-17T11:38:58.730Z,95759.75
2023-04-17T11:42:01.356Z,95765.25
2023-04-17T11:45:05.777Z,95765.66
2023-04-17T11:48:10.020Z,95762.88
2023-04-17T11:51:11.834Z,95766.28
2023-04-17T11:54:24.959Z,95755.50
2023-04-17T11:57:27.213Z,95750.88
2023-04-17T12:00:29.719Z,95760.91
2023-04-17T12:03:33.597Z,95758.59
2023-04-17T12:06:37.678Z,95756.59
2023-04-17T12:09:43.300Z,95760.44
2023-04-17T12:12:45.079Z,95758.16
2023-04-17T12:15:47.314Z,95760.13
2023-04-17T12:18:49.308Z,95758.66
2023-04-17T12:21:51.702Z,95761.91
2023-04-17T12:24:55.095Z,95758.91
2023-04-17T12:27:57.223Z,95752.00
2023-04-17T12:30:59.025Z,95757.03
2023-04-17T12:34:01.250Z,95756.50
2023-04-17T12:37:06.598Z,95759.25
2023-04-17T12:40:11.059Z,95761.59
2023-04-17T12:43:13.776Z,95753.84
2023-04-17T12:46:15.798Z,95755.66
2023-04-17T12:49:18.358Z,95750.34
2023-04-17T12:52:20.164Z,95749.88
2023-04-17T12:55:24.195Z,95747.44
2023-04-17T12:58:26.076Z,95748.63
2023-04-17T13:01:27.865Z,95753.56
2023-04-17T13:04:30.499Z,95747.72
2023-04-17T13:07:32.804Z,95750.44
2023-04-17T13:10:36.077Z,95737.44
2023-04-17T13:13:40.372Z,95735.09
2023-04-17T13:16:42.337Z,95732.84
2023-04-17T13:19:44.452Z,95733.03
2023-04-17T13:22:47.039Z,95731.94
2023-04-17T13:25:50.364Z,95729.78
2023-04-17T13:28:53.341Z,95727.44
2023-04-17T13:31:55.473Z,95720.09
2023-04-17T13:34:58.810Z,95731.25
2023-04-17T13:38:01.824Z,95727.75
2023-04-17T13:41:04.951Z,95723.41
2023-04-17T13:44:11.204Z,95721.66
2023-04-17T13:47:13.877Z,95722.47
2023-04-17T13:50:15.640Z,95725.13
2023-04-17T13:53:20.417Z,95719.34
2023-04-17T13:56:23.704Z,95722.19
2023-04-17T13:59:26.064Z,95711.81
2023-04-17T14:02:29.055Z,95714.59
2023-04-17T14:05:31.564Z,95714.97
2023-04-17T14:08:34.586Z,95712.44
2023-04-17T14:11:38.775Z,95709.81
2023-04-17T14:14:40.534Z,95713.88
2023-04-17T14:17:43.987Z,95707.06
2023-04-17T14:20:46.025Z,95703.34
2023-04-17T14:23:48.443Z,95703.84
2023-04-17T14:26:52.359Z,95703.91
2023-04-17T14:29:54.678Z,95697.38
2023-04-17T14:32:57.216Z,95702.38
2023-04-17T14:35:59.315Z,95705.78
2023-04-17T14:39:01.264Z,95705.69
2023-04-17T14:42:04.742Z,95700.66
2023-04-17T14:45:08.017Z,95702.94
2023-04-17T14:48:10.420Z,95702.03
2023-04-17T14:51:12.436Z,95698.41
2023-04-17T14:54:15.630Z,95693.25
2023-04-17T14:57:19.137Z,95689.75
2023-04-17T15:00:22.550Z,95682.44
2023-04-17T15:03:24.479Z,95689.72
2023-04-17T15:06:26.432Z,95684.00
2023-04-17T15:09:28.282Z,95690.53
2023-04-17T15:12:31.483Z,95700.09
2023-04-17T15:15:35.074Z,95697.78
2023-04-17T15:18:37.218Z,95695.06
2023-04-17T15:21:39.797Z,95693.84
2023-04-17T15:24:41.620Z,95692.22
2023-04-17T15:27:47.645Z,95693.72
2023-04-17T15:30:49.419Z,95699.47
2023-04-17T15:33:51.226Z,95691.78
2023-04-17T15:36:53.172Z,95689.91
2023-04-17T15:39:54.971Z,95683.66
2023-04-17T15:42:59.179Z,95682.13
2023-04-17T15:46:03.710Z,95681.41
2023-04-17T15:49:09.251Z,95690.38
2023-04-17T15:52:11.449Z,95687.31
2023-04-17T15:55:14.469Z,95683.44
2023-04-17T15:58:20.624Z,95683.78
2023-04-17T16:01:25.309Z,95669.50
2023-04-17T16:04:30.017Z,95680.72
2023-04-17T16:07:32.675Z,95675.34
2023-04-17T16:10:35.783Z,95679.97
2023-04-17T16:13:39.361Z,95675.28
2023-04-17T16:16:41.178Z,95674.53
2023-04-17T16:19:44.013Z,95674.09
2023-04-17T16:22:46.150Z,95668.34
2023-04-17T16:25:48.463Z,95660.91
2023-04-17T16:28:51.572Z,95663.19
2023-04-17T16:31:54.184Z,95661.72
2023-04-17T16:34:56.611Z,95667.84
2023-04-17T16:37:58.709Z,95667.03
2023-04-17T16:41:00.591Z,95671.19
2023-04-17T16:44:04.261Z,95673.06
2023-04-17T16:47:13.391Z,95677.75
2023-04-17T16:50:16.230Z,95678.09
2023-04-17T16:53:18.310Z,95680.38
2023-04-17T16:56:21.138Z,95687.50
2023-04-17T16:59:24.610Z,95681.00
2023-04-17T17:02:26.929Z,95684.16
2023-04-17T17:05:28.770Z,95692.19
2023-04-17T17:08:30.595Z,95677.13
2023-04-17T17:11:32.926Z,95682.50
2023-04-17T17:14:38.857Z,95689.00
2023-04-17T17:17:40.667Z,95687.81
2023-04-17T17:20:43.253Z,95692.75
2023-04-17T17:23:46.638Z,95695.78
2023-04-17T17:26:48.569Z,95690.38
2023-04-17T17:29:57.429Z,95690.34
2023-04-17T17:33:00.951Z,95691.47
2023-04-17T17:36:04.696Z,95687.53
2023-04-17T17:39:07.168Z,95682.38
2023-04-17T17:42:09.485Z,95690.94
2023-04-17T17:45:15.987Z,95699.34
2023-04-17T17:48:18.190Z,95697.44
2023-04-17T17:51:20.984Z,95689.75
2023-04-17T17:54:23.048Z,95696.66
2023-04-17T17:57:35.698Z,95698.41
2023-04-17T18:00:45.459Z,95703.94
2023-04-17T18:03:51.310Z,95697.34
2023-04-17T18:06:55.949Z,95704.22
2023-04-17T18:09:58.866Z,95705.31
2023-04-17T18:13:01.036Z,95701.78
2023-04-17T18:16:06.304Z,95713.53
2023-04-17T18:19:09.115Z,95710.66
2023-04-17T18:22:17.873Z,95714.81
2023-04-17T18:25:20.834Z,95711.41
2023-04-17T18:28:23.382Z,95714.81
2023-04-17T18:31:30.642Z,95718.47
2023-04-17T18:34:34.770Z,95721.28
2023-04-17T18:37:37.512Z,95725.09
2023-04-17T18:40:40.795Z,95725.25
2023-04-17T18:43:42.949Z,95731.03
2023-04-17T18:46:47.678Z,95723.97
2023-04-17T18:49:52.423Z,95732.16
2023-04-17T18:52:56.812Z,95736.66
2023-04-17T18:55:59.356Z,95743.75
2023-04-17T18:59:02.102Z,95737.50
2023-04-17T19:02:05.884Z,95739.19
2023-04-17T19:05:13.641Z,95740.66
2023-04-17T19:08:16.326Z,95740.78
2023-04-17T19:11:21.708Z,95744.25
2023-04-17T19:14:24.105Z,95733.97
2023-04-17T19:17:28.588Z,95734.69
2023-04-17T19:20:31.702Z,95741.50
2023-04-17T19:23:35.159Z,95733.78
2023-04-17T19:26:40.036Z,95738.44
2023-04-17T19:29:43.432Z,95726.63
2023-04-17T19:32:48.775Z,95732.38
2023-04-17T19:35:51.754Z,95722.38
2023-04-17T19:38:54.185Z,95719.25
2023-04-17T19:41:59.828Z,95729.97
2023-04-17T19:45:02.606Z,95730.75
2023-04-17T19:48:08.480Z,95720.41
2023-04-17T19:51:11.971Z,95715.09
2023-04-17T19:54:14.966Z,95720.81
2023-04-17T19:57:18.471Z,95719.94
2023-04-17T20:00:21.520Z,95719.19
2023-04-17T20:03:33.735Z,95720.69
2023-04-17T20:06:37.025Z,95719.94
2023-04-17T20:09:40.246Z,95711.59
2023-04-17T20:12:43.447Z,95712.69
2023-04-17T20:15:46.377Z,95712.19
2023-04-17T20:18:50.323Z,95713.47
2023-04-17T20:21:52.462Z,95716.44
2023-04-17T20:24:55.376Z,95712.50
2023-04-17T20:27:58.619Z,95704.44
2023-04-17T20:31:01.437Z,95707.56
2023-04-17T20:34:04.957Z,95706.34
2023-04-17T20:37:07.000Z,95706.00
2023-04-17T20:40:09.917Z,95711.06
2023-04-17T20:43:12.251Z,95713.34
2023-04-17T20:46:14.107Z,95709.09
2023-04-17T20:49:17.301Z,95710.78
2023-04-17T20:52:19.600Z,95710.69
2023-04-17T20:55:23.384Z,95713.88
2023-04-17T20:58:25.821Z,95708.44
2023-04-17T21:01:28.177Z,95710.06
2023-04-17T21:04:31.338Z,95711.78
2023-04-17T21:07:35.111Z,95711.88
2023-04-17T21:10:37.054Z,95712.56
2023-04-17T21:13:39.010Z,95704.19
2023-04-17T21:16:42.357Z,95703.66
2023-04-17T21:19:45.642Z,95697.19
2023-04-17T21:22:48.543Z,95701.00
2023-04-17T21:25:52.217Z,95697.19
2023-04-17T21:28:54.926Z,95696.06
2023-04-17T21:31:57.745Z,95699.75
2023-04-17T21:35:02.630Z,95703.53
2023-04-17T21:38:04.656Z,95694.72
2023-04-17T21:41:06.713Z,95699.69
2023-04-17T21:44:08.923Z,95699.81
2023-04-17T21:47:10.674Z,95696.72
2023-04-17T21:50:13.781Z,95696.09
2023-04-17T21:53:16.453Z,95692.06
2023-04-17T21:56:18.956Z,95698.69
2023-04-17T21:59:20.698Z,95702.09
2023-04-17T22:02:22.620Z,95703.31
2023-04-17T22:05:28.279Z,95692.38
2023-04-17T22:08:30.081Z,95700.59
2023-04-17T22:11:33.053Z,95697.97
2023-04-17T22:14:35.049Z,95697.97
2023-04-17T22:17:38.925Z,95696.69
2023-04-17T22:20:42.244Z,95700.22
2023-04-17T22:23:44.089Z,95688.22
2023-04-17T22:26:47.820Z,95687.25
2023-04-17T22:29:49.828Z,95690.28
2023-04-17T22:32:51.875Z,95696.00
2023-04-17T22:35:55.007Z,95691.13
2023-04-17T22:38:56.868Z,95697.22
2023-04-17T22:41:58.642Z,95695.38
2023-04-17T22:45:00.635Z,95697.41
2023-04-17T22:48:02.495Z,95703.38
2023-04-17T22:51:06.086Z,95692.69
2023-04-17T22:54:19.031Z,95694.03
2023-04-17T22:57:24.053Z,95698.22
2023-04-17T23:00:25.932Z,95697.00
2023-04-17T23:03:27.952Z,95705.22
2023-04-17T23:06:31.122Z,95703.72
2023-04-17T23:09:32.934Z,95692.69
2023-04-17T23:12:35.153Z,95696.56
2023-04-17T23:15:37.025Z,95702.44
2023-04-17T23:18:38.785Z,95697.00
2023-04-17T23:21:41.903Z,95690.91
2023-04-17T23:24:44.713Z,95699.03
2023-04-17T23:27:46.644Z,95695.97
2023-04-17T23:30:48.696Z,95695.97
2023-04-17T23:33:50.617Z,95691.03
2023-04-17T23:36:55.008Z,95690.19
2023-04-17T23:39:56.735Z,95688.78
2023-04-17T23:42:59.076Z,95686.38
2023-04-17T23:46:00.859Z,95682.25
2023-04-17T23:49:02.831Z,95685.06
2023-04-17T23:52:06.260Z,95686.97
2023-04-17T23:55:08.954Z,95679.75
2023-04-17T23:58:11.485Z,95685.63
